TimeEDT,TemperatureF,Dew PointF,Humidity,Sea Level PressureIn,VisibilityMPH,Wind Direction,Wind SpeedMPH,Gust SpeedMPH,PrecipitationIn,Events,Conditions,WindDirDegrees,DateUTC
12:51 AM,55.0,46.9,74,30.25,10.0,SE,10.4,19.6,N/A,,Clear,140,2013-09-18 04:51:00
1:51 AM,54.0,46.9,77,30.25,10.0,SSE,11.5,-,N/A,,Clear,150,2013-09-18 05:51:00
2:51 AM,53.1,46.9,80,30.23,10.0,SE,10.4,-,N/A,,Clear,140,2013-09-18 06:51:00
3:51 AM,53.1,46.0,77,30.22,10.0,Variable,6.9,-,N/A,,Clear,0,2013-09-18 07:51:00
4:51 AM,52.0,46.0,80,30.22,10.0,SE,9.2,-,N/A,,Partly Cloudy,140,2013-09-18 08:51:00
5:51 AM,52.0,46.0,80,30.22,10.0,SE,8.1,-,N/A,,Overcast,140,2013-09-18 09:51:00
6:51 AM,52.0,46.0,80,30.25,10.0,SE,9.2,-,N/A,,Scattered Clouds,140,2013-09-18 10:51:00
7:51 AM,52.0,46.0,80,30.26,10.0,SE,8.1,-,N/A,,Partly Cloudy,140,2013-09-18 11:51:00
8:51 AM,54.0,46.9,77,30.26,10.0,SE,8.1,-,N/A,,Clear,140,2013-09-18 12:51:00
9:51 AM,57.0,48.0,72,30.27,10.0,SSE,6.9,-,N/A,,Mostly Cloudy,150,2013-09-18 13:51:00
10:51 AM,60.1,50.0,69,30.25,10.0,SE,8.1,-,N/A,,Scattered Clouds,140,2013-09-18 14:51:00
11:39 AM,62.6,51.8,68,30.29,10.0,Variable,4.6,-,N/A,,Mostly Cloudy,0,2013-09-18 15:39:00
11:51 AM,63.0,51.1,65,30.24,10.0,ESE,6.9,-,N/A,,Overcast,110,2013-09-18 15:51:00
12:51 PM,66.0,54.0,65,30.22,10.0,South,6.9,-,N/A,,Mostly Cloudy,170,2013-09-18 16:51:00
1:21 PM,69.8,55.4,60,30.25,10.0,Variable,5.8,-,N/A,,Scattered Clouds,0,2013-09-18 17:21:00
1:35 PM,69.8,55.4,60,30.25,10.0,Variable,5.8,-,N/A,,Mostly Cloudy,0,2013-09-18 17:35:00
1:51 PM,68.0,55.0,63,30.20,10.0,West,4.6,-,N/A,,Overcast,280,2013-09-18 17:51:00
2:37 PM,66.2,55.4,68,30.24,10.0,WSW,8.1,-,N/A,,Overcast,240,2013-09-18 18:37:00
2:51 PM,66.0,55.9,70,30.19,10.0,WSW,6.9,-,N/A,,Overcast,240,2013-09-18 18:51:00
3:00 PM,66.2,55.4,68,30.24,10.0,West,8.1,-,N/A,,Overcast,260,2013-09-18 19:00:00
3:12 PM,64.4,55.4,73,30.24,10.0,West,8.1,-,0.00,Rain,Light Rain,270,2013-09-18 19:12:00
3:51 PM,62.1,57.0,84,30.19,10.0,WSW,4.6,-,0.00,,Overcast,250,2013-09-18 19:51:00
4:37 PM,62.6,57.2,82,30.22,10.0,Calm,Calm,-,0.00,,Overcast,0,2013-09-18 20:37:00
4:51 PM,63.0,57.9,84,30.19,10.0,Calm,Calm,-,0.00,,Overcast,0,2013-09-18 20:51:00
5:51 PM,63.0,57.9,84,30.18,10.0,Calm,Calm,-,N/A,,Overcast,0,2013-09-18 21:51:00
6:04 PM,62.6,57.2,82,30.22,9.0,SSE,3.5,-,N/A,,Overcast,150,2013-09-18 22:04:00
6:23 PM,62.6,57.2,82,30.22,6.0,Calm,Calm,-,N/A,,Haze,0,2013-09-18 22:23:00
6:51 PM,62.1,57.0,84,30.18,9.0,South,4.6,-,N/A,,Overcast,180,2013-09-18 22:51:00
7:38 PM,60.8,57.2,88,30.19,10.0,SSE,6.9,-,N/A,,Overcast,160,2013-09-18 23:38:00
7:51 PM,61.0,57.0,87,30.17,10.0,South,3.5,-,N/A,,Overcast,170,2013-09-18 23:51:00
8:29 PM,60.8,57.2,88,30.20,10.0,SSE,4.6,-,N/A,,Overcast,160,2013-09-19 00:29:00
8:51 PM,61.0,57.0,87,30.17,10.0,South,5.8,-,N/A,,Overcast,190,2013-09-19 00:51:00
9:51 PM,61.0,57.0,87,30.17,10.0,SSW,4.6,-,N/A,,Mostly Cloudy,210,2013-09-19 01:51:00
10:26 PM,60.8,57.2,88,30.22,10.0,SSW,4.6,-,N/A,,Overcast,210,2013-09-19 02:26:00
10:51 PM,61.0,57.9,90,30.17,10.0,SSW,3.5,-,N/A,,Overcast,210,2013-09-19 02:51:00
11:17 PM,60.8,57.2,88,30.22,10.0,SW,5.8,-,N/A,,Overcast,220,2013-09-19 03:17:00
11:51 PM,61.0,57.9,90,30.16,10.0,SSW,6.9,-,N/A,,Overcast,210,2013-09-19 03:51:00